createdAt,value
2023-07-02T00:00:55.411Z,78.48
2023-07-02T00:03:21.944Z,78.80
2023-07-02T00:05:48.890Z,78.39
2023-07-02T00:08:15.288Z,78.09
2023-07-02T00:10:41.732Z,77.83
2023-07-02T00:13:08.172Z,78.59
2023-07-02T00:15:34.555Z,78.65
2023-07-02T00:18:01.206Z,78.49
2023-07-02T00:20:27.620Z,78.51
2023-07-02T00:22:54.001Z,78.86
2023-07-02T00:25:20.430Z,78.43
2023-07-02T00:27:47.063Z,78.61
2023-07-02T00:30:13.454Z,78.87
2023-07-02T00:32:40.124Z,78.55
2023-07-02T00:35:06.565Z,78.31
2023-07-02T00:37:33.868Z,78.44
2023-07-02T00:40:00.329Z,78.67
2023-07-02T00:42:26.763Z,78.35
2023-07-02T00:44:53.183Z,79.11
2023-07-02T00:47:19.622Z,78.70
2023-07-02T00:49:46.024Z,78.18
2023-07-02T00:52:12.428Z,78.39
2023-07-02T00:54:38.821Z,78.75
2023-07-02T00:57:05.199Z,78.33
2023-07-02T00:59:31.610Z,78.55
2023-07-02T01:01:58.300Z,78.68
2023-07-02T01:04:24.848Z,78.10
2023-07-02T01:06:51.320Z,78.38
2023-07-02T01:09:17.741Z,78.08
2023-07-02T01:11:44.139Z,78.19
2023-07-02T01:14:10.903Z,78.28
2023-07-02T01:16:37.650Z,78.22
2023-07-02T01:19:04.128Z,78.14
2023-07-02T01:21:30.516Z,78.21
2023-07-02T01:23:56.927Z,78.35
2023-07-02T01:26:23.311Z,78.07
2023-07-02T01:28:49.712Z,78.37
2023-07-02T01:31:16.167Z,78.54
2023-07-02T01:33:42.594Z,78.46
2023-07-02T01:36:09.014Z,78.26
2023-07-02T01:38:35.498Z,78.13
2023-07-02T01:41:01.898Z,78.34
2023-07-02T01:43:28.523Z,78.33
2023-07-02T01:45:54.956Z,78.40
2023-07-02T01:48:21.377Z,77.88
2023-07-02T01:50:47.949Z,77.95
2023-07-02T01:53:14.713Z,78.07
2023-07-02T01:55:41.209Z,78.50
2023-07-02T01:58:07.585Z,78.23
2023-07-02T02:00:34.189Z,78.14
2023-07-02T02:03:00.727Z,78.61
2023-07-02T02:05:27.250Z,78.30
2023-07-02T02:07:53.627Z,78.51
2023-07-02T02:10:20.049Z,77.93
2023-07-02T02:12:46.478Z,78.10
2023-07-02T02:15:12.894Z,78.07
2023-07-02T02:17:39.295Z,77.52
2023-07-02T02:20:05.714Z,78.37
2023-07-02T02:22:32.321Z,79.12
2023-07-02T02:24:58.695Z,78.71
2023-07-02T02:27:25.088Z,78.46
2023-07-02T02:29:51.483Z,78.78
2023-07-02T02:32:17.919Z,78.59
2023-07-02T02:34:44.331Z,79.00
2023-07-02T02:37:10.722Z,78.96
2023-07-02T02:39:37.340Z,78.17
2023-07-02T02:42:03.736Z,79.16
2023-07-02T02:44:30.374Z,78.70
2023-07-02T02:46:56.875Z,78.26
2023-07-02T02:49:23.333Z,78.27
2023-07-02T02:51:49.727Z,78.18
2023-07-02T02:54:16.108Z,77.96
2023-07-02T02:56:42.524Z,78.26
2023-07-02T02:59:08.911Z,78.63
2023-07-02T03:01:35.343Z,78.20
2023-07-02T03:04:01.875Z,78.24
2023-07-02T03:06:28.581Z,78.07
2023-07-02T03:08:54.970Z,78.17
2023-07-02T03:11:21.391Z,78.23
2023-07-02T03:13:47.818Z,78.20
2023-07-02T03:16:14.234Z,78.41
2023-07-02T03:18:40.903Z,78.25
2023-07-02T03:21:07.302Z,78.39
2023-07-02T03:23:33.950Z,78.01
2023-07-02T03:26:00.357Z,78.53
2023-07-02T03:28:26.977Z,78.65
2023-07-02T03:30:53.406Z,78.44
2023-07-02T03:33:19.830Z,78.23
2023-07-02T03:35:46.236Z,78.62
2023-07-02T03:38:12.668Z,78.46
2023-07-02T03:40:39.130Z,78.07
2023-07-02T03:43:06.932Z,78.11
2023-07-02T03:45:33.906Z,77.58
2023-07-02T03:48:00.342Z,78.01
2023-07-02T03:50:26.961Z,78.28
2023-07-02T03:52:53.351Z,78.30
2023-07-02T03:55:19.721Z,78.17
2023-07-02T03:57:46.102Z,78.24
2023-07-02T04:00:12.546Z,78.22
2023-07-02T04:02:39.015Z,78.11
2023-07-02T04:05:05.510Z,78.44
2023-07-02T04:07:32.170Z,78.16
2023-07-02T04:09:58.561Z,78.16
2023-07-02T04:12:24.955Z,78.16
2023-07-02T04:14:51.364Z,78.15
2023-07-02T04:17:17.776Z,77.70
2023-07-02T04:19:44.195Z,77.82
2023-07-02T04:22:10.619Z,77.80
2023-07-02T04:24:37.020Z,78.34
2023-07-02T04:27:17.855Z,77.83
2023-07-02T04:29:50.411Z,77.77
2023-07-02T04:32:16.840Z,78.05
2023-07-02T04:34:43.244Z,77.94
2023-07-02T04:37:09.847Z,78.02
2023-07-02T04:39:36.300Z,77.70
2023-07-02T04:42:03.006Z,77.94
2023-07-02T04:44:29.403Z,78.19
2023-07-02T04:46:55.809Z,77.77
2023-07-02T04:49:22.210Z,78.19
2023-07-02T04:51:48.827Z,78.02
2023-07-02T04:54:15.245Z,78.30
2023-07-02T04:56:41.655Z,78.06
2023-07-02T04:59:08.057Z,78.06
2023-07-02T05:01:34.492Z,77.73
2023-07-02T05:04:01.350Z,77.93
2023-07-02T05:06:28.000Z,77.73
2023-07-02T05:08:54.389Z,77.67
2023-07-02T05:11:20.761Z,78.07
2023-07-02T05:13:47.192Z,77.90
2023-07-02T05:16:13.611Z,78.38
2023-07-02T05:18:40.029Z,77.98
2023-07-02T05:21:06.660Z,78.15
2023-07-02T05:23:33.052Z,78.84
2023-07-02T05:25:59.684Z,78.73
2023-07-02T05:28:26.088Z,78.65
2023-07-02T05:30:52.539Z,78.39
2023-07-02T05:33:20.163Z,78.46
2023-07-02T05:35:46.569Z,77.40
2023-07-02T05:38:12.971Z,78.01
2023-07-02T05:40:39.366Z,77.91
2023-07-02T05:43:06.006Z,77.85
2023-07-02T05:45:32.424Z,77.99
2023-07-02T05:47:59.082Z,78.28
2023-07-02T05:50:25.540Z,77.90
2023-07-02T05:52:51.925Z,77.43
2023-07-02T05:55:18.328Z,78.06
2023-07-02T05:57:44.756Z,78.35
2023-07-02T06:00:11.153Z,77.86
2023-07-02T06:02:37.643Z,77.62
2023-07-02T06:05:04.392Z,77.63
2023-07-02T06:07:30.903Z,77.36
2023-07-02T06:09:57.315Z,78.18
2023-07-02T06:12:23.719Z,78.46
2023-07-02T06:14:50.112Z,78.84
2023-07-02T06:17:16.514Z,78.22
2023-07-02T06:19:42.914Z,77.91
2023-07-02T06:22:09.535Z,77.65
2023-07-02T06:24:35.949Z,78.30
2023-07-02T06:27:02.354Z,77.74
2023-07-02T06:29:28.752Z,78.18
2023-07-02T06:31:55.122Z,77.75
2023-07-02T06:34:21.527Z,77.99
2023-07-02T06:36:47.926Z,78.46
2023-07-02T06:39:14.576Z,78.10
2023-07-02T06:41:40.992Z,78.10
2023-07-02T06:44:07.455Z,77.77
2023-07-02T06:46:33.986Z,78.27
2023-07-02T06:49:00.428Z,78.26
2023-07-02T06:51:27.071Z,78.25
2023-07-02T06:53:53.467Z,78.30
2023-07-02T06:56:19.860Z,78.57
2023-07-02T06:58:46.236Z,78.11
2023-07-02T07:01:12.636Z,77.99
2023-07-02T07:03:39.339Z,77.93
2023-07-02T07:06:05.866Z,78.05
2023-07-02T07:08:32.492Z,78.18
2023-07-02T07:10:58.893Z,78.20
2023-07-02T07:13:25.315Z,78.29
2023-07-02T07:15:51.724Z,77.88
2023-07-02T07:18:18.229Z,78.25
2023-07-02T07:20:44.676Z,77.54
2023-07-02T07:23:11.767Z,78.08
2023-07-02T07:25:38.396Z,78.06
2023-07-02T07:28:04.768Z,78.33
2023-07-02T07:30:33.462Z,77.69
2023-07-02T07:33:00.113Z,77.54
2023-07-02T07:35:26.495Z,77.96
2023-07-02T07:37:52.862Z,78.47
2023-07-02T07:40:19.257Z,78.28
2023-07-02T07:42:45.886Z,78.31
2023-07-02T07:45:12.356Z,78.20
2023-07-02T07:47:38.837Z,78.32
2023-07-02T07:50:05.353Z,78.39
2023-07-02T07:52:31.724Z,78.62
2023-07-02T07:54:58.183Z,78.36
2023-07-02T07:57:24.595Z,78.56
2023-07-02T07:59:51.207Z,78.37
2023-07-02T08:02:17.667Z,78.14
2023-07-02T08:04:44.119Z,77.98
2023-07-02T08:07:10.531Z,77.89
2023-07-02T08:09:36.917Z,78.57
2023-07-02T08:12:03.319Z,78.47
2023-07-02T08:14:29.696Z,78.24
2023-07-02T08:16:56.316Z,78.22
2023-07-02T08:19:22.698Z,78.12
2023-07-02T08:21:49.069Z,78.07
2023-07-02T08:24:15.456Z,78.15
2023-07-02T08:26:41.845Z,78.30
2023-07-02T08:29:08.257Z,77.92
2023-07-02T08:31:34.714Z,78.35
2023-07-02T08:34:01.361Z,77.92
2023-07-02T08:36:27.779Z,77.79
2023-07-02T08:38:54.200Z,77.62
2023-07-02T08:41:20.598Z,77.83
2023-07-02T08:43:47.005Z,77.67
2023-07-02T08:46:13.879Z,77.94
2023-07-02T08:48:40.287Z,77.98
2023-07-02T08:51:06.903Z,78.10
2023-07-02T08:53:33.279Z,78.50
2023-07-02T08:55:59.649Z,78.06
2023-07-02T08:58:26.284Z,77.93
2023-07-02T09:00:52.680Z,78.07
2023-07-02T09:03:19.184Z,77.51
2023-07-02T09:05:45.592Z,78.11
2023-07-02T09:08:11.964Z,78.21
2023-07-02T09:10:38.400Z,77.87
2023-07-02T09:13:05.044Z,77.90
2023-07-02T09:15:31.441Z,77.84
2023-07-02T09:17:57.885Z,77.34
2023-07-02T09:20:24.314Z,77.12
2023-07-02T09:22:50.695Z,77.49
2023-07-02T09:25:17.091Z,77.87
2023-07-02T09:27:43.557Z,77.79
2023-07-02T09:30:09.987Z,77.72
2023-07-02T09:32:36.523Z,78.12
2023-07-02T09:35:03.019Z,77.73
2023-07-02T09:37:29.407Z,77.31
2023-07-02T09:39:55.822Z,77.45
2023-07-02T09:42:22.242Z,77.58
2023-07-02T09:44:48.696Z,77.24
2023-07-02T09:47:15.399Z,77.69
2023-07-02T09:49:41.812Z,77.16
2023-07-02T09:52:08.227Z,77.30
2023-07-02T09:54:34.634Z,77.93
2023-07-02T09:57:01.031Z,78.00
2023-07-02T09:59:27.647Z,77.63
2023-07-02T10:01:54.325Z,77.65
2023-07-02T10:04:20.853Z,77.57
2023-07-02T10:06:47.570Z,77.34
2023-07-02T10:09:13.970Z,77.59
2023-07-02T10:11:40.379Z,77.18
2023-07-02T10:14:06.783Z,77.24
2023-07-02T10:16:33.218Z,76.74
2023-07-02T10:18:59.607Z,77.60
2023-07-02T10:21:25.994Z,78.09
2023-07-02T10:23:52.414Z,77.81
2023-07-02T10:26:18.888Z,77.79
2023-07-02T10:28:45.538Z,78.20
2023-07-02T10:31:11.949Z,77.74
2023-07-02T10:33:38.392Z,77.72
2023-07-02T10:36:04.818Z,77.27
2023-07-02T10:38:31.440Z,77.58
2023-07-02T10:40:58.206Z,77.27
2023-07-02T10:43:24.604Z,77.36
2023-07-02T10:45:51.094Z,77.50
2023-07-02T10:48:17.506Z,77.54
2023-07-02T10:50:43.910Z,77.36
2023-07-02T10:53:10.309Z,77.45
2023-07-02T10:55:36.724Z,77.75
2023-07-02T10:58:03.128Z,77.34
2023-07-02T11:00:29.551Z,77.77
2023-07-02T11:02:56.046Z,77.67
2023-07-02T11:05:22.834Z,77.69
2023-07-02T11:07:49.304Z,77.46
2023-07-02T11:10:15.680Z,77.54
2023-07-02T11:12:42.046Z,77.89
2023-07-02T11:15:08.429Z,78.21
2023-07-02T11:17:34.857Z,77.85
2023-07-02T11:20:01.772Z,78.10
2023-07-02T11:22:28.187Z,77.93
2023-07-02T11:24:54.607Z,77.97
2023-07-02T11:27:21.007Z,77.63
2023-07-02T11:29:47.400Z,78.05
2023-07-02T11:32:13.800Z,78.44
2023-07-02T11:34:40.212Z,78.16
2023-07-02T11:37:06.609Z,77.73
2023-07-02T11:39:33.001Z,77.96
2023-07-02T11:41:59.387Z,77.88
2023-07-02T11:44:25.988Z,78.01
2023-07-02T11:46:52.447Z,78.57
2023-07-02T11:49:18.945Z,77.63
2023-07-02T11:51:45.599Z,78.30
2023-07-02T11:54:12.113Z,78.24
2023-07-02T11:56:38.523Z,78.61
2023-07-02T11:59:05.422Z,78.51
2023-07-02T12:01:31.924Z,78.25
2023-07-02T12:03:58.337Z,78.12
2023-07-02T12:06:24.733Z,78.57
2023-07-02T12:08:51.124Z,78.09
2023-07-02T12:11:18.169Z,78.10
2023-07-02T12:13:44.563Z,78.50
2023-07-02T12:16:10.978Z,78.35
2023-07-02T12:18:37.397Z,78.28
2023-07-02T12:21:04.008Z,78.48
2023-07-02T12:23:30.855Z,78.50
2023-07-02T12:25:57.308Z,78.16
2023-07-02T12:28:23.735Z,78.36
2023-07-02T12:30:50.154Z,78.39
2023-07-02T12:33:19.210Z,78.13
2023-07-02T12:35:46.712Z,78.18
2023-07-02T12:38:13.485Z,78.38
2023-07-02T12:40:39.906Z,78.27
2023-07-02T12:43:06.298Z,78.46
2023-07-02T12:45:32.924Z,78.66
2023-07-02T12:47:59.363Z,78.82
2023-07-02T12:50:26.036Z,78.51
2023-07-02T12:52:52.426Z,78.10
2023-07-02T12:55:18.804Z,78.35
2023-07-02T12:57:45.437Z,78.30
2023-07-02T13:00:11.946Z,78.61
2023-07-02T13:02:46.918Z,78.27
2023-07-02T13:05:20.446Z,78.34
2023-07-02T13:07:46.885Z,77.93
2023-07-02T13:10:13.299Z,78.28
2023-07-02T13:12:39.714Z,78.31
2023-07-02T13:15:06.105Z,78.39
2023-07-02T13:17:32.556Z,78.57
2023-07-02T13:19:59.021Z,78.74
2023-07-02T13:22:25.622Z,78.21
2023-07-02T13:24:51.999Z,78.56
2023-07-02T13:27:18.394Z,78.62
2023-07-02T13:29:44.788Z,78.72
2023-07-02T13:32:11.387Z,78.82
2023-07-02T13:34:37.800Z,78.67
2023-07-02T13:37:04.261Z,78.87
2023-07-02T13:39:30.675Z,78.68
2023-07-02T13:41:57.212Z,78.99
2023-07-02T13:44:23.637Z,78.89
2023-07-02T13:46:50.105Z,78.95
2023-07-02T13:49:16.507Z,78.90
2023-07-02T13:51:42.904Z,79.04
2023-07-02T13:54:09.305Z,78.84
2023-07-02T13:56:35.719Z,78.79
2023-07-02T13:59:02.163Z,79.06
2023-07-02T14:01:28.681Z,79.10
2023-07-02T14:03:55.266Z,79.09
2023-07-02T14:06:22.102Z,79.22
2023-07-02T14:08:49.412Z,78.80
2023-07-02T14:11:15.889Z,79.26
2023-07-02T14:13:42.545Z,79.11
2023-07-02T14:16:08.986Z,79.38
2023-07-02T14:18:35.432Z,79.36
2023-07-02T14:21:02.119Z,79.36
2023-07-02T14:23:28.520Z,79.55
2023-07-02T14:25:55.060Z,79.38
2023-07-02T14:28:21.508Z,79.42
2023-07-02T14:30:47.895Z,79.43
2023-07-02T14:33:14.283Z,79.44
2023-07-02T14:35:40.900Z,79.36
2023-07-02T14:38:07.627Z,79.44
2023-07-02T14:40:34.070Z,79.41
2023-07-02T14:43:00.566Z,79.49
2023-07-02T14:45:27.259Z,79.44
2023-07-02T14:47:53.833Z,79.49
2023-07-02T14:50:20.372Z,79.32
2023-07-02T14:52:46.829Z,79.38
2023-07-02T14:55:13.229Z,79.34
2023-07-02T14:57:39.632Z,79.22
2023-07-02T15:00:06.258Z,79.22
2023-07-02T15:02:32.763Z,79.27
2023-07-02T15:04:59.487Z,79.20
2023-07-02T15:07:25.997Z,79.11
2023-07-02T15:09:55.828Z,78.94
2023-07-02T15:12:22.461Z,79.04
2023-07-02T15:14:48.867Z,79.02
2023-07-02T15:17:15.312Z,78.96
2023-07-02T15:19:41.755Z,79.03
2023-07-02T15:22:11.519Z,79.09
2023-07-02T15:24:37.910Z,79.10
2023-07-02T15:29:48.744Z,78.80
2023-07-02T15:32:15.130Z,78.77
2023-07-02T15:34:41.498Z,78.61
2023-07-02T15:37:07.911Z,78.67
2023-07-02T15:39:34.511Z,78.97
2023-07-02T15:42:00.931Z,78.70
2023-07-02T15:44:27.348Z,78.62
2023-07-02T15:46:53.925Z,78.62
2023-07-02T15:49:20.398Z,78.60
2023-07-02T15:51:46.833Z,78.60
2023-07-02T15:54:14.069Z,78.70
2023-07-02T15:56:40.458Z,78.73
2023-07-02T15:59:06.856Z,78.44
2023-07-02T16:01:33.265Z,78.32
2023-07-02T16:03:59.773Z,78.42
2023-07-02T16:06:26.286Z,78.60
2023-07-02T16:08:52.760Z,78.48
2023-07-02T16:11:19.250Z,78.48
2023-07-02T16:13:45.667Z,77.86
2023-07-02T16:16:12.661Z,78.06
2023-07-02T16:18:39.338Z,78.15
2023-07-02T16:21:05.774Z,78.35
2023-07-02T16:23:32.478Z,78.17
2023-07-02T16:25:59.040Z,77.90
2023-07-02T16:28:26.053Z,78.21
2023-07-02T16:30:52.445Z,77.84
2023-07-02T16:33:19.060Z,78.07
2023-07-02T16:35:45.451Z,77.87
2023-07-02T16:38:11.847Z,78.22
2023-07-02T16:40:38.486Z,78.31
2023-07-02T16:43:04.894Z,78.28
2023-07-02T16:45:31.292Z,78.19
2023-07-02T16:47:57.943Z,78.39
2023-07-02T16:50:24.660Z,78.31
2023-07-02T16:52:51.035Z,78.38
2023-07-02T16:55:17.421Z,78.59
2023-07-02T16:57:43.814Z,78.68
2023-07-02T17:00:11.189Z,78.67
2023-07-02T17:02:37.882Z,78.72
2023-07-02T17:05:05.200Z,78.41
2023-07-02T17:07:31.680Z,78.52
2023-07-02T17:09:58.102Z,78.23
2023-07-02T17:12:24.520Z,78.47
2023-07-02T17:14:50.955Z,78.56
2023-07-02T17:17:17.435Z,78.60
2023-07-02T17:19:44.159Z,78.63
2023-07-02T17:22:10.619Z,78.76
2023-07-02T17:24:37.018Z,78.76
2023-07-02T17:27:03.407Z,78.71
2023-07-02T17:29:29.802Z,78.57
2023-07-02T17:31:56.189Z,78.38
2023-07-02T17:34:22.565Z,78.26
2023-07-02T17:36:48.959Z,77.91
2023-07-02T17:39:15.340Z,78.14
2023-07-02T17:41:41.732Z,78.39
2023-07-02T17:44:08.135Z,78.55
2023-07-02T17:46:34.886Z,78.58
2023-07-02T17:49:01.284Z,78.55
2023-07-02T17:51:27.679Z,78.61
2023-07-02T17:53:54.068Z,78.63
2023-07-02T17:56:20.465Z,78.63
2023-07-02T17:58:46.850Z,78.48
2023-07-02T18:01:13.309Z,78.48
2023-07-02T18:03:39.886Z,78.22
2023-07-02T18:06:06.515Z,78.41
2023-07-02T18:08:33.136Z,78.43
2023-07-02T18:10:59.555Z,77.95
2023-07-02T18:13:26.220Z,77.97
2023-07-02T18:15:53.096Z,78.13
2023-07-02T18:18:19.719Z,78.05
2023-07-02T18:20:46.146Z,77.73
2023-07-02T18:23:12.567Z,77.69
2023-07-02T18:25:39.217Z,78.04
2023-07-02T18:28:05.632Z,78.23
2023-07-02T18:30:32.085Z,78.26
2023-07-02T18:32:58.512Z,78.41
2023-07-02T18:35:24.953Z,78.53
2023-07-02T18:37:51.373Z,78.45
2023-07-02T18:40:17.749Z,78.37
2023-07-02T18:42:44.132Z,78.60
2023-07-02T18:45:10.505Z,78.62
2023-07-02T18:47:37.330Z,78.67
2023-07-02T18:50:04.537Z,78.53
2023-07-02T18:52:30.969Z,78.49
2023-07-02T18:54:57.396Z,78.55
2023-07-02T18:57:23.807Z,78.69
2023-07-02T18:59:50.194Z,78.62
2023-07-02T19:02:16.600Z,78.63
2023-07-02T19:04:43.255Z,78.82
2023-07-02T19:07:09.671Z,78.45
2023-07-02T19:09:36.085Z,78.44
2023-07-02T19:12:02.511Z,78.34
2023-07-02T19:14:28.905Z,78.49
2023-07-02T19:16:55.307Z,78.50
2023-07-02T19:19:21.760Z,77.95
2023-07-02T19:21:48.176Z,77.89
2023-07-02T19:24:14.601Z,77.17
2023-07-02T19:26:41.204Z,77.77
2023-07-02T19:29:07.590Z,78.10
2023-07-02T19:31:34.128Z,77.22
2023-07-02T19:34:00.544Z,77.46
2023-07-02T19:36:26.951Z,77.33
2023-07-02T19:38:53.327Z,77.43
2023-07-02T19:41:19.700Z,77.25
2023-07-02T19:43:46.115Z,77.62
2023-07-02T19:46:12.798Z,77.20
2023-07-02T19:48:39.493Z,77.66
2023-07-02T19:51:05.889Z,77.08
2023-07-02T19:53:32.569Z,77.34
2023-07-02T19:55:59.026Z,77.62
2023-07-02T19:58:25.446Z,76.73
2023-07-02T20:00:52.086Z,77.02
2023-07-02T20:03:18.573Z,76.99
2023-07-02T20:05:45.392Z,76.90
2023-07-02T20:08:11.941Z,77.07
2023-07-02T20:10:38.329Z,76.77
2023-07-02T20:13:04.720Z,76.64
2023-07-02T20:15:31.129Z,76.59
2023-07-02T20:17:57.651Z,76.69
2023-07-02T20:20:24.098Z,76.47
2023-07-02T20:22:50.727Z,76.78
2023-07-02T20:25:47.840Z,76.56
2023-07-02T20:28:03.717Z,76.64
2023-07-02T20:30:30.136Z,76.73
2023-07-02T20:32:56.851Z,76.44
2023-07-02T20:35:23.353Z,76.01
2023-07-02T20:37:49.737Z,76.34
2023-07-02T20:40:16.380Z,76.41
2023-07-02T20:42:42.788Z,75.95
2023-07-02T20:45:09.197Z,75.69
2023-07-02T20:47:35.655Z,75.52
2023-07-02T20:50:02.058Z,76.04
2023-07-02T20:52:28.475Z,75.62
2023-07-02T20:54:55.085Z,75.41
2023-07-02T20:57:21.487Z,75.70
2023-07-02T20:59:47.891Z,75.46
2023-07-02T21:02:14.328Z,75.65
2023-07-02T21:04:40.777Z,75.47
2023-07-02T21:07:07.167Z,75.39
2023-07-02T21:09:34.878Z,75.57
2023-07-02T21:12:01.291Z,75.52
2023-07-02T21:14:27.684Z,75.40
2023-07-02T21:16:54.201Z,75.73
2023-07-02T21:19:20.650Z,75.47
2023-07-02T21:21:47.465Z,75.49
2023-07-02T21:24:13.977Z,75.37
2023-07-02T21:26:40.582Z,75.27
2023-07-02T21:29:06.970Z,74.92
2023-07-02T21:31:33.420Z,75.07
2023-07-02T21:33:59.838Z,75.66
2023-07-02T21:36:26.230Z,75.37
2023-07-02T21:38:52.682Z,75.15
2023-07-02T21:41:19.093Z,74.84
2023-07-02T21:43:45.504Z,75.27
2023-07-02T21:46:11.966Z,75.12
2023-07-02T21:48:38.383Z,75.13
2023-07-02T21:51:05.025Z,75.33
2023-07-02T21:53:31.412Z,74.86
2023-07-02T21:55:57.819Z,74.97
2023-07-02T21:58:24.249Z,74.82
2023-07-02T22:00:50.684Z,75.03
2023-07-02T22:03:17.114Z,75.37
2023-07-02T22:05:43.573Z,74.85
2023-07-02T22:08:10.025Z,75.47
2023-07-02T22:10:36.393Z,75.00
2023-07-02T22:13:02.785Z,75.14
2023-07-02T22:15:29.175Z,74.99
2023-07-02T22:17:55.785Z,74.92
2023-07-02T22:20:22.209Z,74.91
2023-07-02T22:22:48.656Z,75.19
2023-07-02T22:25:15.055Z,75.44
2023-07-02T22:27:41.675Z,75.24
2023-07-02T22:30:08.075Z,75.08
2023-07-02T22:32:34.495Z,74.70
2023-07-02T22:35:00.938Z,75.29
2023-07-02T22:37:27.377Z,75.25
2023-07-02T22:39:53.784Z,74.83
2023-07-02T22:42:20.166Z,74.83
2023-07-02T22:44:46.780Z,75.04
2023-07-02T22:47:13.163Z,74.69
2023-07-02T22:49:39.861Z,75.02
2023-07-02T22:52:06.262Z,74.92
2023-07-02T22:54:32.681Z,74.75
2023-07-02T22:56:59.094Z,74.95
2023-07-02T22:59:25.472Z,74.73
2023-07-02T23:01:51.874Z,75.00
2023-07-02T23:04:18.458Z,74.71
2023-07-02T23:06:45.158Z,74.72
2023-07-02T23:09:11.566Z,75.03
2023-07-02T23:11:37.979Z,74.95
2023-07-02T23:14:04.368Z,75.56
2023-07-02T23:16:30.808Z,74.95
2023-07-02T23:18:57.204Z,74.33
2023-07-02T23:21:23.567Z,74.66
2023-07-02T23:23:49.940Z,74.50
2023-07-02T23:26:16.334Z,74.69
2023-07-02T23:28:42.950Z,74.53
2023-07-02T23:31:09.411Z,74.93
2023-07-02T23:33:35.857Z,74.81
2023-07-02T23:36:02.262Z,74.41
2023-07-02T23:38:28.690Z,74.59
2023-07-02T23:40:55.332Z,75.10
2023-07-02T23:43:21.720Z,74.72
2023-07-02T23:45:48.297Z,74.59
2023-07-02T23:48:14.949Z,74.63
2023-07-02T23:50:41.613Z,74.87
2023-07-02T23:53:08.817Z,74.97
2023-07-02T23:55:35.198Z,74.45
2023-07-02T23:58:01.596Z,74.50
